»·PEaware :: N96792 KIFP-KTRM

N96792 :: KIFP-KTRM

FLIGHT INFORMATION

Flight Status: Arrived
Operator: Privately registered:
United States
More flights under this callsign
Pilot: Thomas B. (35019)
Aircraft: CESSNA 172 SKYHAWK
(C172)
More flights by this aircraft type
Origin: KIFP Laughlin/Bullhead Intl
United States
Destination: KTRM Desert Resorts Regl
United States
More flights between these airports :: More routes between these airports
Route: EED CLOWD1
File this flight plan on PilotEdge
Remarks:
Altitude:
(Current/Filed)
7,000ft
Speed:
(Current/Filed)
120kts
Departed: 14-Jan-22 09:41 AM
Arrived: 14-Jan-22 10:59 AM
Distance/Time
Traveled:
122nm/1:18
Distance/Time
To Go:
Arrived

Flight Plot

Page will automatically refresh every two minutes.


Map Options




Map Legend


Flown Route
Filed Route
Departure Airport
Arrival Airport
Navaid (VOR, NDB)
Fix

Horizontal Profiles

Position Reports

Time Latitude Longitude Heading Altitude Ground
Speed
14-Jan-22 09:22 35.156053 -114.556051 266 705ft 0kts
14-Jan-22 09:23 35.156053 -114.556051 266 705ft 0kts
14-Jan-22 09:24 35.156053 -114.556051 266 705ft 0kts
14-Jan-22 09:25 35.156053 -114.556051 266 705ft 0kts
14-Jan-22 09:26 35.156053 -114.556051 266 705ft 0kts
14-Jan-22 09:27 35.156053 -114.556051 266 705ft 0kts
14-Jan-22 09:28 35.156053 -114.556051 266 705ft 0kts
14-Jan-22 09:29 35.156053 -114.556051 266 705ft 0kts
14-Jan-22 09:30 35.156053 -114.556051 266 705ft 0kts
14-Jan-22 09:31 35.156053 -114.556051 266 705ft 0kts
14-Jan-22 09:32 35.156053 -114.556051 266 705ft 0kts
14-Jan-22 09:33 35.156053 -114.556051 266 705ft 0kts
14-Jan-22 09:34 35.156053 -114.556051 266 705ft 0kts
14-Jan-22 09:35 35.156051 -114.556094 268 705ft 3kts
14-Jan-22 09:36 35.153992 -114.557899 174 705ft 20kts
14-Jan-22 09:37 35.148593 -114.557502 178 705ft 21kts
14-Jan-22 09:38 35.143216 -114.557501 257 705ft 0kts
14-Jan-22 09:39 35.143200 -114.557590 258 705ft 3kts
14-Jan-22 09:40 35.152249 -114.559279 355 1173ft 58kts
14-Jan-22 09:41 35.159378 -114.545798 124 2176ft 97kts
14-Jan-22 09:42 35.131834 -114.537002 166 3185ft 104kts
14-Jan-22 09:43 35.102456 -114.532145 171 4139ft 113kts
14-Jan-22 09:44 35.070644 -114.527033 173 5057ft 117kts
14-Jan-22 09:45 35.038457 -114.522328 173 5973ft 116kts
14-Jan-22 09:46 35.007104 -114.516875 173 6892ft 111kts
14-Jan-22 09:47 34.972457 -114.510043 173 7044ft 151kts
14-Jan-22 09:48 34.931202 -114.502014 173 6992ft 147kts
14-Jan-22 09:49 34.892770 -114.494134 173 7347ft 128kts
14-Jan-22 09:50 34.859120 -114.487946 175 7909ft 121kts
14-Jan-22 09:51 34.822969 -114.481557 175 7996ft 138kts
14-Jan-22 09:52 34.784543 -114.475489 176 8002ft 140kts
14-Jan-22 09:53 34.754830 -114.496187 227 7992ft 130kts
14-Jan-22 09:54 34.730632 -114.528422 234 7995ft 129kts
14-Jan-22 09:55 34.708049 -114.562414 235 7999ft 129kts
14-Jan-22 09:56 34.685648 -114.596471 235 8003ft 129kts
14-Jan-22 09:57 34.663229 -114.630541 235 8007ft 129kts
14-Jan-22 09:58 34.640841 -114.664551 235 8011ft 129kts
14-Jan-22 09:59 34.617927 -114.698167 235 8014ft 129kts
14-Jan-22 10:00 34.595567 -114.732104 236 8017ft 129kts
14-Jan-22 10:01 34.573225 -114.766111 236 8020ft 129kts
14-Jan-22 10:02 34.550889 -114.800103 236 8022ft 129kts
14-Jan-22 10:03 34.528483 -114.834210 236 8024ft 129kts
14-Jan-22 10:04 34.506210 -114.868129 236 8026ft 129kts
14-Jan-22 10:05 34.484280 -114.898973 234 8258ft 123kts
14-Jan-22 10:06 34.460601 -114.933664 235 7960ft 131kts
14-Jan-22 10:07 34.437927 -114.966893 235 8035ft 128kts
14-Jan-22 10:08 34.415586 -115.000769 236 8036ft 129kts
14-Jan-22 10:09 34.393177 -115.035209 236 8037ft 130kts
14-Jan-22 10:10 34.370852 -115.069720 235 8038ft 131kts
14-Jan-22 10:11 34.347948 -115.104160 235 8038ft 131kts
14-Jan-22 10:12 34.325015 -115.138861 235 8039ft 132kts
14-Jan-22 10:13 34.301824 -115.173483 234 8040ft 133kts
14-Jan-22 10:14 34.278463 -115.208126 234 8040ft 133kts
14-Jan-22 10:15 34.254852 -115.242702 233 8041ft 133kts
14-Jan-22 10:16 34.231050 -115.276790 233 8042ft 133kts
14-Jan-22 10:17 34.207236 -115.310901 233 8042ft 132kts
14-Jan-22 10:18 34.184096 -115.345097 234 8076ft 130kts
14-Jan-22 10:19 34.161261 -115.378639 234 8111ft 129kts
14-Jan-22 10:20 34.139079 -115.412184 235 8108ft 129kts
14-Jan-22 10:21 34.116864 -115.446017 235 8105ft 128kts
14-Jan-22 10:22 34.094765 -115.479652 235 8101ft 128kts
14-Jan-22 10:23 34.072682 -115.513255 235 8096ft 128kts
14-Jan-22 10:24 34.050290 -115.546665 234 8092ft 128kts
14-Jan-22 10:25 34.027645 -115.580061 234 8088ft 129kts
14-Jan-22 10:26 34.004901 -115.613724 234 8084ft 129kts
14-Jan-22 10:27 33.982267 -115.647369 234 8081ft 129kts
14-Jan-22 10:28 33.959506 -115.681297 234 8088ft 130kts
14-Jan-22 10:29 33.935883 -115.714604 232 8095ft 130kts
14-Jan-22 10:30 33.916513 -115.750128 263 8096ft 127kts
14-Jan-22 10:31 33.914099 -115.792983 270 8000ft 130kts
14-Jan-22 10:32 33.904118 -115.833033 226 7797ft 140kts
14-Jan-22 10:33 33.870613 -115.858520 189 7209ft 148kts
14-Jan-22 10:34 33.831130 -115.862847 198 7009ft 139kts
14-Jan-22 10:35 33.794539 -115.875913 199 6990ft 136kts
14-Jan-22 10:36 33.758331 -115.888988 201 6988ft 136kts
14-Jan-22 10:37 33.722517 -115.903369 201 6987ft 135kts
14-Jan-22 10:38 33.686691 -115.917765 201 6986ft 135kts
14-Jan-22 10:39 33.649854 -115.932640 201 6682ft 145kts
14-Jan-22 10:40 33.611458 -115.948359 201 6182ft 146kts
14-Jan-22 10:41 33.572985 -115.964191 201 5681ft 146kts
14-Jan-22 10:42 33.536816 -115.978758 198 5169ft 119kts
14-Jan-22 10:43 33.506667 -115.988819 198 4661ft 109kts
14-Jan-22 10:44 33.479299 -115.985522 134 4194ft 107kts
14-Jan-22 10:45 33.458503 -115.959206 133 3998ft 113kts
14-Jan-22 10:46 33.452778 -115.930837 22 3975ft 96kts
14-Jan-22 10:47 33.461463 -115.950570 254 3971ft 94kts
14-Jan-22 10:48 33.468409 -115.979271 313 3969ft 91kts
14-Jan-22 10:49 33.488738 -116.001401 312 3686ft 107kts
14-Jan-22 10:50 33.506712 -116.024674 313 3268ft 82kts
14-Jan-22 10:51 33.522657 -116.045170 313 2799ft 87kts
14-Jan-22 10:52 33.539884 -116.065858 315 2300ft 88kts
14-Jan-22 10:53 33.558079 -116.085643 318 1800ft 88kts
14-Jan-22 10:54 33.576376 -116.105559 317 1298ft 89kts
14-Jan-22 10:55 33.593850 -116.125969 314 883ft 80kts
14-Jan-22 10:56 33.608983 -116.145704 314 296ft 69kts
14-Jan-22 10:57 33.620340 -116.159196 316 -88ft 53kts
14-Jan-22 10:58 33.625437 -116.164980 13 -110ft 8kts

Navigation Log

Ident Type
Flight plan parsing failed, navigation log unavailable